sensor_id;sensor_type;location;lat;lon;timestamp;pressure;altitude;pressure_sealevel;temperature;humidity
56721;BME280;53183;47.412;18.884;2022-12-10T00:01:27;97648.38;;;6.74;100.00
56721;BME280;53183;47.412;18.884;2022-12-10T00:03:55;97641.66;;;6.70;100.00
56721;BME280;53183;47.412;18.884;2022-12-10T00:06:24;97643.34;;;6.71;100.00
56721;BME280;53183;47.412;18.884;2022-12-10T00:08:52;97639.03;;;6.70;100.00
56721;BME280;53183;47.412;18.884;2022-12-10T00:11:21;97640.41;;;6.76;100.00
56721;BME280;53183;47.412;18.884;2022-12-10T00:13:49;97645.84;;;6.73;100.00
56721;BME280;53183;47.412;18.884;2022-12-10T00:16:19;97663.28;;;6.74;100.00
56721;BME280;53183;47.412;18.884;2022-12-10T00:18:47;97671.78;;;6.77;100.00
56721;BME280;53183;47.412;18.884;2022-12-10T00:21:17;97664.78;;;6.78;100.00
56721;BME280;53183;47.412;18.884;2022-12-10T00:23:45;97665.62;;;6.78;100.00
56721;BME280;53183;47.412;18.884;2022-12-10T00:26:16;97672.41;;;6.81;100.00
56721;BME280;53183;47.412;18.884;2022-12-10T00:28:44;97672.22;;;6.97;100.00
56721;BME280;53183;47.412;18.884;2022-12-10T00:31:18;97679.59;;;7.04;100.00
56721;BME280;53183;47.412;18.884;2022-12-10T00:33:46;97682.22;;;7.17;100.00
56721;BME280;53183;47.412;18.884;2022-12-10T00:36:16;97679.47;;;7.19;100.00
56721;BME280;53183;47.412;18.884;2022-12-10T00:38:44;97683.91;;;7.18;100.00
56721;BME280;53183;47.412;18.884;2022-12-10T00:41:12;97692.00;;;7.15;100.00
56721;BME280;53183;47.412;18.884;2022-12-10T00:43:39;97681.16;;;7.07;100.00
56721;BME280;53183;47.412;18.884;2022-12-10T00:46:06;97680.84;;;6.99;100.00
56721;BME280;53183;47.412;18.884;2022-12-10T00:48:34;97684.72;;;6.93;100.00
56721;BME280;53183;47.412;18.884;2022-12-10T00:51:07;97683.69;;;6.96;100.00
56721;BME280;53183;47.412;18.884;2022-12-10T00:53:36;97688.59;;;6.88;100.00
56721;BME280;53183;47.412;18.884;2022-12-10T00:56:06;97684.00;;;6.78;100.00
56721;BME280;53183;47.412;18.884;2022-12-10T00:58:36;97704.78;;;6.81;100.00
56721;BME280;53183;47.412;18.884;2022-12-10T01:01:18;97694.81;;;6.87;100.00
56721;BME280;53183;47.412;18.884;2022-12-10T01:03:47;97703.44;;;6.89;100.00
56721;BME280;53183;47.412;18.884;2022-12-10T01:06:27;97708.06;;;6.85;100.00
56721;BME280;53183;47.412;18.884;2022-12-10T01:08:57;97714.22;;;6.84;100.00
56721;BME280;53183;47.412;18.884;2022-12-10T01:11:29;97714.44;;;6.81;100.00
56721;BME280;53183;47.412;18.884;2022-12-10T01:13:57;97707.00;;;6.75;100.00
56721;BME280;53183;47.412;18.884;2022-12-10T01:16:25;97712.25;;;6.75;100.00
56721;BME280;53183;47.412;18.884;2022-12-10T01:18:54;97714.75;;;6.76;100.00
56721;BME280;53183;47.412;18.884;2022-12-10T01:21:23;97714.31;;;6.70;100.00
56721;BME280;53183;47.412;18.884;2022-12-10T01:23:52;97712.66;;;6.69;100.00
56721;BME280;53183;47.412;18.884;2022-12-10T01:26:24;97710.44;;;6.75;100.00
56721;BME280;53183;47.412;18.884;2022-12-10T01:28:54;97706.56;;;6.81;100.00
56721;BME280;53183;47.412;18.884;2022-12-10T01:31:36;97725.56;;;6.72;100.00
56721;BME280;53183;47.412;18.884;2022-12-10T01:34:08;97717.56;;;6.73;100.00
56721;BME280;53183;47.412;18.884;2022-12-10T01:36:38;97705.28;;;6.74;100.00
56721;BME280;53183;47.412;18.884;2022-12-10T01:39:08;97708.47;;;6.79;100.00
56721;BME280;53183;47.412;18.884;2022-12-10T01:41:41;97705.91;;;6.77;100.00
56721;BME280;53183;47.412;18.884;2022-12-10T01:46:46;97710.25;;;6.78;100.00
56721;BME280;53183;47.412;18.884;2022-12-10T01:49:16;97719.47;;;6.71;100.00
56721;BME280;53183;47.412;18.884;2022-12-10T01:51:49;97724.38;;;6.63;100.00
56721;BME280;53183;47.412;18.884;2022-12-10T01:54:35;97725.34;;;6.62;100.00
56721;BME280;53183;47.412;18.884;2022-12-10T01:57:08;97739.56;;;6.58;100.00
56721;BME280;53183;47.412;18.884;2022-12-10T01:59:37;97733.06;;;6.51;100.00
56721;BME280;53183;47.412;18.884;2022-12-10T02:02:44;97732.34;;;6.49;100.00
56721;BME280;53183;47.412;18.884;2022-12-10T02:16:21;97743.16;;;6.30;100.00
56721;BME280;53183;47.412;18.884;2022-12-10T02:18:58;97755.22;;;6.05;100.00
56721;BME280;53183;47.412;18.884;2022-12-10T02:21:37;97746.03;;;6.13;100.00
56721;BME280;53183;47.412;18.884;2022-12-10T02:24:08;97738.37;;;6.09;100.00
56721;BME280;53183;47.412;18.884;2022-12-10T02:29:18;97743.31;;;5.85;100.00
56721;BME280;53183;47.412;18.884;2022-12-10T02:31:55;97732.19;;;5.82;100.00
56721;BME280;53183;47.412;18.884;2022-12-10T02:34:24;97715.16;;;5.75;100.00
56721;BME280;53183;47.412;18.884;2022-12-10T02:36:57;97727.72;;;5.70;100.00
56721;BME280;53183;47.412;18.884;2022-12-10T02:39:35;97738.03;;;5.73;100.00
56721;BME280;53183;47.412;18.884;2022-12-10T02:42:04;97745.44;;;5.66;100.00
56721;BME280;53183;47.412;18.884;2022-12-10T02:44:34;97739.44;;;5.64;100.00
56721;BME280;53183;47.412;18.884;2022-12-10T02:47:05;97726.22;;;5.65;100.00
56721;BME280;53183;47.412;18.884;2022-12-10T02:49:36;97731.19;;;5.70;100.00
56721;BME280;53183;47.412;18.884;2022-12-10T02:52:13;97724.34;;;5.68;100.00
56721;BME280;53183;47.412;18.884;2022-12-10T02:54:43;97725.75;;;5.59;100.00
56721;BME280;53183;47.412;18.884;2022-12-10T03:00:05;97731.78;;;5.47;100.00
56721;BME280;53183;47.412;18.884;2022-12-10T03:05:19;97744.56;;;5.51;100.00
56721;BME280;53183;47.412;18.884;2022-12-10T03:07:51;97752.06;;;5.57;100.00
56721;BME280;53183;47.412;18.884;2022-12-10T03:10:28;97771.34;;;5.56;100.00
56721;BME280;53183;47.412;18.884;2022-12-10T03:13:04;97777.22;;;5.46;100.00
56721;BME280;53183;47.412;18.884;2022-12-10T03:15:36;97775.66;;;5.43;100.00
56721;BME280;53183;47.412;18.884;2022-12-10T03:18:07;97778.91;;;5.32;100.00
56721;BME280;53183;47.412;18.884;2022-12-10T03:20:38;97773.59;;;5.34;100.00
56721;BME280;53183;47.412;18.884;2022-12-10T03:23:09;97784.13;;;5.32;100.00
56721;BME280;53183;47.412;18.884;2022-12-10T03:25:38;97774.59;;;5.31;100.00
56721;BME280;53183;47.412;18.884;2022-12-10T03:28:06;97771.03;;;5.32;100.00
56721;BME280;53183;47.412;18.884;2022-12-10T03:30:36;97767.03;;;5.27;100.00
56721;BME280;53183;47.412;18.884;2022-12-10T03:33:05;97763.41;;;4.99;100.00
56721;BME280;53183;47.412;18.884;2022-12-10T03:35:33;97772.03;;;5.01;100.00
56721;BME280;53183;47.412;18.884;2022-12-10T03:38:01;97768.13;;;5.08;100.00
56721;BME280;53183;47.412;18.884;2022-12-10T03:40:28;97761.63;;;5.00;100.00
56721;BME280;53183;47.412;18.884;2022-12-10T03:42:55;97768.28;;;5.05;100.00
56721;BME280;53183;47.412;18.884;2022-12-10T03:45:22;97776.50;;;4.99;100.00
56721;BME280;53183;47.412;18.884;2022-12-10T03:47:49;97776.59;;;4.98;100.00
56721;BME280;53183;47.412;18.884;2022-12-10T03:50:17;97779.00;;;4.86;100.00
56721;BME280;53183;47.412;18.884;2022-12-10T03:52:44;97778.75;;;4.91;100.00
56721;BME280;53183;47.412;18.884;2022-12-10T03:55:11;97786.41;;;4.94;100.00
56721;BME280;53183;47.412;18.884;2022-12-10T03:57:38;97788.16;;;4.93;100.00
56721;BME280;53183;47.412;18.884;2022-12-10T04:00:06;97789.34;;;5.04;100.00
56721;BME280;53183;47.412;18.884;2022-12-10T04:02:38;97788.22;;;5.08;100.00
56721;BME280;53183;47.412;18.884;2022-12-10T04:05:05;97788.47;;;5.03;100.00
56721;BME280;53183;47.412;18.884;2022-12-10T04:07:33;97791.19;;;5.02;100.00
56721;BME280;53183;47.412;18.884;2022-12-10T04:10:01;97797.72;;;4.94;100.00
56721;BME280;53183;47.412;18.884;2022-12-10T04:12:29;97796.22;;;4.90;100.00
56721;BME280;53183;47.412;18.884;2022-12-10T04:14:56;97805.47;;;4.96;100.00
56721;BME280;53183;47.412;18.884;2022-12-10T04:17:42;97805.87;;;5.04;100.00
56721;BME280;53183;47.412;18.884;2022-12-10T04:20:10;97812.41;;;4.97;100.00
56721;BME280;53183;47.412;18.884;2022-12-10T04:22:57;97807.53;;;4.91;100.00
56721;BME280;53183;47.412;18.884;2022-12-10T04:25:42;97808.81;;;4.84;100.00
56721;BME280;53183;47.412;18.884;2022-12-10T04:28:28;97818.06;;;4.89;100.00
56721;BME280;53183;47.412;18.884;2022-12-10T04:30:56;97812.00;;;4.89;100.00
56721;BME280;53183;47.412;18.884;2022-12-10T04:33:23;97812.78;;;4.91;100.00
56721;BME280;53183;47.412;18.884;2022-12-10T04:35:50;97813.56;;;4.77;100.00
56721;BME280;53183;47.412;18.884;2022-12-10T04:38:17;97806.37;;;4.81;100.00
56721;BME280;53183;47.412;18.884;2022-12-10T04:40:44;97803.44;;;4.71;100.00
56721;BME280;53183;47.412;18.884;2022-12-10T04:43:11;97809.19;;;4.78;100.00
56721;BME280;53183;47.412;18.884;2022-12-10T04:45:38;97802.81;;;4.82;100.00
56721;BME280;53183;47.412;18.884;2022-12-10T04:48:05;97803.50;;;4.85;100.00
56721;BME280;53183;47.412;18.884;2022-12-10T04:50:34;97791.25;;;4.86;100.00
56721;BME280;53183;47.412;18.884;2022-12-10T04:53:01;97779.56;;;4.77;100.00
56721;BME280;53183;47.412;18.884;2022-12-10T04:55:28;97778.78;;;4.75;100.00
56721;BME280;53183;47.412;18.884;2022-12-10T04:57:55;97777.84;;;4.76;100.00
56721;BME280;53183;47.412;18.884;2022-12-10T05:00:22;97773.72;;;4.72;100.00
56721;BME280;53183;47.412;18.884;2022-12-10T05:02:49;97773.06;;;4.68;100.00
56721;BME280;53183;47.412;18.884;2022-12-10T05:05:16;97791.53;;;4.65;100.00
56721;BME280;53183;47.412;18.884;2022-12-10T05:07:43;97796.94;;;4.62;100.00
56721;BME280;53183;47.412;18.884;2022-12-10T05:10:10;97803.53;;;4.69;100.00
56721;BME280;53183;47.412;18.884;2022-12-10T05:12:38;97813.97;;;4.69;100.00
56721;BME280;53183;47.412;18.884;2022-12-10T05:15:05;97823.94;;;4.63;100.00
56721;BME280;53183;47.412;18.884;2022-12-10T05:17:33;97826.22;;;4.69;100.00
56721;BME280;53183;47.412;18.884;2022-12-10T05:20:01;97831.88;;;4.77;100.00
56721;BME280;53183;47.412;18.884;2022-12-10T05:22:28;97833.47;;;4.64;100.00
56721;BME280;53183;47.412;18.884;2022-12-10T05:25:14;97836.91;;;4.80;100.00
56721;BME280;53183;47.412;18.884;2022-12-10T05:27:41;97832.56;;;4.81;100.00
56721;BME280;53183;47.412;18.884;2022-12-10T05:30:09;97837.03;;;4.79;100.00
56721;BME280;53183;47.412;18.884;2022-12-10T05:32:37;97829.66;;;4.85;100.00
56721;BME280;53183;47.412;18.884;2022-12-10T05:35:05;97831.97;;;4.76;100.00
56721;BME280;53183;47.412;18.884;2022-12-10T05:37:32;97830.94;;;4.78;100.00
56721;BME280;53183;47.412;18.884;2022-12-10T05:40:00;97848.16;;;4.82;100.00
56721;BME280;53183;47.412;18.884;2022-12-10T05:42:27;97846.66;;;4.78;100.00
56721;BME280;53183;47.412;18.884;2022-12-10T05:44:54;97850.44;;;4.73;100.00
56721;BME280;53183;47.412;18.884;2022-12-10T05:47:22;97844.47;;;4.70;100.00
56721;BME280;53183;47.412;18.884;2022-12-10T05:49:49;97851.72;;;4.65;100.00
56721;BME280;53183;47.412;18.884;2022-12-10T05:52:18;97856.12;;;4.65;100.00
56721;BME280;53183;47.412;18.884;2022-12-10T05:54:45;97834.25;;;4.50;100.00
56721;BME280;53183;47.412;18.884;2022-12-10T05:57:12;97830.97;;;4.46;100.00
56721;BME280;53183;47.412;18.884;2022-12-10T05:59:39;97838.47;;;4.53;100.00
56721;BME280;53183;47.412;18.884;2022-12-10T06:02:07;97844.72;;;4.50;100.00
56721;BME280;53183;47.412;18.884;2022-12-10T06:04:34;97858.22;;;4.42;100.00
56721;BME280;53183;47.412;18.884;2022-12-10T06:07:01;97864.81;;;4.50;100.00
56721;BME280;53183;47.412;18.884;2022-12-10T06:09:35;97856.91;;;4.51;100.00
56721;BME280;53183;47.412;18.884;2022-12-10T06:12:02;97863.03;;;4.50;100.00
56721;BME280;53183;47.412;18.884;2022-12-10T06:14:29;97853.78;;;4.44;100.00
56721;BME280;53183;47.412;18.884;2022-12-10T06:16:57;97869.31;;;4.47;100.00
56721;BME280;53183;47.412;18.884;2022-12-10T06:19:24;97856.88;;;4.35;100.00
56721;BME280;53183;47.412;18.884;2022-12-10T06:21:51;97861.84;;;4.40;100.00
56721;BME280;53183;47.412;18.884;2022-12-10T06:24:18;97870.81;;;4.36;100.00
56721;BME280;53183;47.412;18.884;2022-12-10T06:26:46;97873.06;;;4.26;100.00
56721;BME280;53183;47.412;18.884;2022-12-10T06:29:18;97879.72;;;4.16;100.00
56721;BME280;53183;47.412;18.884;2022-12-10T06:31:45;97881.81;;;4.09;100.00
56721;BME280;53183;47.412;18.884;2022-12-10T06:34:12;97891.03;;;4.16;100.00
56721;BME280;53183;47.412;18.884;2022-12-10T06:36:40;97897.72;;;4.22;100.00
56721;BME280;53183;47.412;18.884;2022-12-10T06:39:07;97888.41;;;4.16;100.00
56721;BME280;53183;47.412;18.884;2022-12-10T06:41:34;97891.22;;;4.29;100.00
56721;BME280;53183;47.412;18.884;2022-12-10T06:44:01;97892.06;;;4.30;100.00
56721;BME280;53183;47.412;18.884;2022-12-10T06:46:28;97897.97;;;4.33;100.00
56721;BME280;53183;47.412;18.884;2022-12-10T06:48:55;97906.41;;;4.38;100.00
56721;BME280;53183;47.412;18.884;2022-12-10T06:51:24;97909.03;;;4.38;100.00
56721;BME280;53183;47.412;18.884;2022-12-10T06:53:51;97915.16;;;4.37;100.00
56721;BME280;53183;47.412;18.884;2022-12-10T06:56:18;97907.88;;;4.11;100.00
56721;BME280;53183;47.412;18.884;2022-12-10T06:58:46;97894.34;;;3.87;100.00
56721;BME280;53183;47.412;18.884;2022-12-10T07:03:43;97871.84;;;4.00;100.00
56721;BME280;53183;47.412;18.884;2022-12-10T07:06:11;97876.91;;;4.03;100.00
56721;BME280;53183;47.412;18.884;2022-12-10T07:08:38;97884.75;;;4.03;100.00
56721;BME280;53183;47.412;18.884;2022-12-10T07:11:07;97886.34;;;3.90;100.00
56721;BME280;53183;47.412;18.884;2022-12-10T07:13:35;97888.53;;;3.97;100.00
56721;BME280;53183;47.412;18.884;2022-12-10T07:16:15;97886.84;;;3.96;100.00
56721;BME280;53183;47.412;18.884;2022-12-10T07:18:43;97881.00;;;3.91;100.00
56721;BME280;53183;47.412;18.884;2022-12-10T07:21:23;97872.28;;;3.92;100.00
56721;BME280;53183;47.412;18.884;2022-12-10T07:23:52;97867.06;;;3.75;100.00
56721;BME280;53183;47.412;18.884;2022-12-10T07:26:21;97857.31;;;3.79;100.00
56721;BME280;53183;47.412;18.884;2022-12-10T07:28:48;97850.31;;;3.79;100.00
56721;BME280;53183;47.412;18.884;2022-12-10T07:31:21;97845.94;;;3.80;100.00
56721;BME280;53183;47.412;18.884;2022-12-10T07:33:50;97844.75;;;3.69;100.00
56721;BME280;53183;47.412;18.884;2022-12-10T07:36:18;97844.97;;;3.65;100.00
56721;BME280;53183;47.412;18.884;2022-12-10T07:38:46;97853.41;;;3.70;100.00
56721;BME280;53183;47.412;18.884;2022-12-10T07:41:14;97870.59;;;3.74;100.00
56721;BME280;53183;47.412;18.884;2022-12-10T07:43:42;97881.75;;;3.78;100.00
56721;BME280;53183;47.412;18.884;2022-12-10T07:46:11;97892.13;;;3.79;100.00
56721;BME280;53183;47.412;18.884;2022-12-10T07:48:40;97888.44;;;3.83;100.00
56721;BME280;53183;47.412;18.884;2022-12-10T07:51:07;97894.59;;;3.82;100.00
56721;BME280;53183;47.412;18.884;2022-12-10T07:53:35;97899.72;;;3.84;100.00
56721;BME280;53183;47.412;18.884;2022-12-10T07:56:03;97897.34;;;3.79;100.00
56721;BME280;53183;47.412;18.884;2022-12-10T07:58:31;97893.97;;;3.77;100.00
56721;BME280;53183;47.412;18.884;2022-12-10T08:00:59;97905.94;;;3.81;100.00
56721;BME280;53183;47.412;18.884;2022-12-10T08:03:26;97901.41;;;3.85;100.00
56721;BME280;53183;47.412;18.884;2022-12-10T08:06:04;97894.50;;;3.84;100.00
56721;BME280;53183;47.412;18.884;2022-12-10T08:08:33;97892.19;;;3.95;100.00
56721;BME280;53183;47.412;18.884;2022-12-10T08:11:00;97893.56;;;3.85;100.00
56721;BME280;53183;47.412;18.884;2022-12-10T08:13:28;97895.84;;;3.91;100.00
56721;BME280;53183;47.412;18.884;2022-12-10T08:16:03;97893.41;;;3.88;100.00
56721;BME280;53183;47.412;18.884;2022-12-10T08:18:32;97875.53;;;3.80;100.00
56721;BME280;53183;47.412;18.884;2022-12-10T08:21:05;97876.34;;;3.81;100.00
56721;BME280;53183;47.412;18.884;2022-12-10T08:23:33;97880.22;;;3.73;100.00
56721;BME280;53183;47.412;18.884;2022-12-10T08:26:09;97876.09;;;3.69;100.00
56721;BME280;53183;47.412;18.884;2022-12-10T08:28:36;97879.59;;;3.68;100.00
56721;BME280;53183;47.412;18.884;2022-12-10T08:31:04;97881.78;;;3.93;100.00
56721;BME280;53183;47.412;18.884;2022-12-10T08:33:35;97880.44;;;3.86;100.00
56721;BME280;53183;47.412;18.884;2022-12-10T08:36:05;97884.13;;;3.82;100.00
56721;BME280;53183;47.412;18.884;2022-12-10T08:38:33;97882.00;;;4.06;100.00
56721;BME280;53183;47.412;18.884;2022-12-10T08:41:06;97890.94;;;4.02;100.00
56721;BME280;53183;47.412;18.884;2022-12-10T08:43:35;97900.28;;;4.06;100.00
56721;BME280;53183;47.412;18.884;2022-12-10T08:46:02;97896.22;;;4.00;100.00
56721;BME280;53183;47.412;18.884;2022-12-10T08:48:30;97896.34;;;4.31;100.00
56721;BME280;53183;47.412;18.884;2022-12-10T08:50:57;97902.44;;;4.31;100.00
56721;BME280;53183;47.412;18.884;2022-12-10T08:53:24;97913.59;;;4.35;100.00
56721;BME280;53183;47.412;18.884;2022-12-10T08:55:53;97920.81;;;4.30;100.00
56721;BME280;53183;47.412;18.884;2022-12-10T08:58:20;97912.47;;;4.23;100.00
56721;BME280;53183;47.412;18.884;2022-12-10T09:00:48;97928.25;;;4.21;100.00
56721;BME280;53183;47.412;18.884;2022-12-10T09:03:16;97926.34;;;4.08;100.00
56721;BME280;53183;47.412;18.884;2022-12-10T09:05:44;97925.69;;;3.87;100.00
56721;BME280;53183;47.412;18.884;2022-12-10T09:08:12;97927.78;;;3.80;100.00
56721;BME280;53183;47.412;18.884;2022-12-10T09:10:40;97924.91;;;3.85;100.00
56721;BME280;53183;47.412;18.884;2022-12-10T09:13:07;97925.78;;;3.85;100.00
56721;BME280;53183;47.412;18.884;2022-12-10T09:15:34;97917.78;;;3.88;100.00
56721;BME280;53183;47.412;18.884;2022-12-10T09:18:02;97926.84;;;3.81;100.00
56721;BME280;53183;47.412;18.884;2022-12-10T09:20:30;97917.00;;;3.86;100.00
56721;BME280;53183;47.412;18.884;2022-12-10T09:22:57;97916.38;;;3.98;100.00
56721;BME280;53183;47.412;18.884;2022-12-10T09:25:24;97915.50;;;3.98;100.00
56721;BME280;53183;47.412;18.884;2022-12-10T09:27:51;97918.66;;;4.05;100.00
56721;BME280;53183;47.412;18.884;2022-12-10T09:30:19;97918.25;;;4.12;100.00
56721;BME280;53183;47.412;18.884;2022-12-10T09:32:46;97923.00;;;4.21;100.00
56721;BME280;53183;47.412;18.884;2022-12-10T09:35:13;97904.84;;;4.03;100.00
56721;BME280;53183;47.412;18.884;2022-12-10T09:37:40;97901.59;;;3.97;100.00
56721;BME280;53183;47.412;18.884;2022-12-10T09:40:18;97901.53;;;3.99;100.00
56721;BME280;53183;47.412;18.884;2022-12-10T09:43:01;97889.03;;;3.88;100.00
56721;BME280;53183;47.412;18.884;2022-12-10T09:48:24;97871.59;;;3.71;100.00
56721;BME280;53183;47.412;18.884;2022-12-10T09:51:39;97859.56;;;3.69;100.00
56721;BME280;53183;47.412;18.884;2022-12-10T09:53:48;97849.06;;;3.53;100.00
56721;BME280;53183;47.412;18.884;2022-12-10T09:56:22;97838.47;;;3.56;100.00
56721;BME280;53183;47.412;18.884;2022-12-10T09:58:50;97833.31;;;3.55;100.00
56721;BME280;53183;47.412;18.884;2022-12-10T10:01:19;97836.63;;;3.41;100.00
56721;BME280;53183;47.412;18.884;2022-12-10T10:03:50;97836.16;;;3.50;100.00
56721;BME280;53183;47.412;18.884;2022-12-10T10:06:17;97837.69;;;3.54;100.00
56721;BME280;53183;47.412;18.884;2022-12-10T10:08:46;97847.16;;;3.39;100.00
56721;BME280;53183;47.412;18.884;2022-12-10T10:11:22;97856.22;;;3.49;100.00
56721;BME280;53183;47.412;18.884;2022-12-10T10:13:53;97838.47;;;3.39;100.00
56721;BME280;53183;47.412;18.884;2022-12-10T10:18:58;97841.59;;;3.45;100.00
56721;BME280;53183;47.412;18.884;2022-12-10T10:21:38;97832.31;;;3.57;100.00
56721;BME280;53183;47.412;18.884;2022-12-10T10:24:07;97849.28;;;3.48;100.00
56721;BME280;53183;47.412;18.884;2022-12-10T10:26:39;97856.75;;;3.39;100.00
56721;BME280;53183;47.412;18.884;2022-12-10T10:29:10;97861.28;;;3.35;100.00
56721;BME280;53183;47.412;18.884;2022-12-10T10:31:40;97864.41;;;3.42;100.00
56721;BME280;53183;47.412;18.884;2022-12-10T10:34:18;97862.97;;;3.53;100.00
56721;BME280;53183;47.412;18.884;2022-12-10T10:36:46;97869.50;;;3.62;100.00
56721;BME280;53183;47.412;18.884;2022-12-10T10:41:44;97862.94;;;3.71;100.00
56721;BME280;53183;47.412;18.884;2022-12-10T10:44:16;97870.91;;;3.68;100.00
56721;BME280;53183;47.412;18.884;2022-12-10T10:46:47;97866.09;;;3.60;100.00
56721;BME280;53183;47.412;18.884;2022-12-10T10:49:28;97869.25;;;3.67;100.00
56721;BME280;53183;47.412;18.884;2022-12-10T10:52:04;97870.03;;;3.69;100.00
56721;BME280;53183;47.412;18.884;2022-12-10T10:54:34;97863.44;;;3.78;100.00
56721;BME280;53183;47.412;18.884;2022-12-10T10:57:11;97857.63;;;3.72;100.00
56721;BME280;53183;47.412;18.884;2022-12-10T10:59:38;97841.50;;;3.64;100.00
56721;BME280;53183;47.412;18.884;2022-12-10T11:02:34;97843.44;;;3.61;100.00
56721;BME280;53183;47.412;18.884;2022-12-10T11:05:23;97837.75;;;3.70;100.00
56721;BME280;53183;47.412;18.884;2022-12-10T11:07:59;97835.53;;;3.62;100.00
56721;BME280;53183;47.412;18.884;2022-12-10T11:10:27;97828.03;;;3.56;100.00
56721;BME280;53183;47.412;18.884;2022-12-10T11:12:57;97842.03;;;3.71;100.00
56721;BME280;53183;47.412;18.884;2022-12-10T11:15:34;97831.00;;;3.66;100.00
56721;BME280;53183;47.412;18.884;2022-12-10T11:18:03;97827.13;;;3.73;100.00
56721;BME280;53183;47.412;18.884;2022-12-10T11:20:58;97819.31;;;3.89;100.00
56721;BME280;53183;47.412;18.884;2022-12-10T11:23:40;97823.34;;;3.94;100.00
56721;BME280;53183;47.412;18.884;2022-12-10T11:29:05;97806.44;;;4.02;100.00
56721;BME280;53183;47.412;18.884;2022-12-10T11:37:08;97787.84;;;3.74;100.00
56721;BME280;53183;47.412;18.884;2022-12-10T11:39:51;97779.00;;;3.77;100.00
56721;BME280;53183;47.412;18.884;2022-12-10T11:45:27;97771.12;;;3.61;100.00
56721;BME280;53183;47.412;18.884;2022-12-10T11:54:06;97741.34;;;3.65;100.00
56721;BME280;53183;47.412;18.884;2022-12-10T11:56:44;97746.78;;;3.61;100.00
56721;BME280;53183;47.412;18.884;2022-12-10T11:59:53;97745.37;;;3.71;100.00
56721;BME280;53183;47.412;18.884;2022-12-10T12:05:46;97744.37;;;3.73;100.00
56721;BME280;53183;47.412;18.884;2022-12-10T12:08:42;97742.00;;;3.69;100.00
56721;BME280;53183;47.412;18.884;2022-12-10T12:14:13;97741.41;;;3.64;100.00
56721;BME280;53183;47.412;18.884;2022-12-10T12:16:47;97737.66;;;3.52;100.00
56721;BME280;53183;47.412;18.884;2022-12-10T12:19:24;97732.88;;;3.44;100.00
56721;BME280;53183;47.412;18.884;2022-12-10T12:21:55;97731.03;;;3.46;100.00
56721;BME280;53183;47.412;18.884;2022-12-10T12:24:35;97732.81;;;3.28;100.00
56721;BME280;53183;47.412;18.884;2022-12-10T12:30:02;97731.50;;;3.37;100.00
56721;BME280;53183;47.412;18.884;2022-12-10T12:32:51;97727.91;;;3.40;100.00
56721;BME280;53183;47.412;18.884;2022-12-10T12:35:26;97725.13;;;3.43;100.00
56721;BME280;53183;47.412;18.884;2022-12-10T12:40:53;97726.34;;;3.20;100.00
56721;BME280;53183;47.412;18.884;2022-12-10T12:43:28;97731.41;;;3.23;100.00
56721;BME280;53183;47.412;18.884;2022-12-10T12:46:02;97726.09;;;3.24;100.00
56721;BME280;53183;47.412;18.884;2022-12-10T12:48:51;97736.69;;;3.21;100.00
56721;BME280;53183;47.412;18.884;2022-12-10T12:51:27;97734.91;;;3.22;100.00
56721;BME280;53183;47.412;18.884;2022-12-10T12:53:56;97742.84;;;3.20;100.00
56721;BME280;53183;47.412;18.884;2022-12-10T13:05:02;97751.16;;;2.94;100.00
56721;BME280;53183;47.412;18.884;2022-12-10T13:07:32;97755.19;;;2.99;100.00
56721;BME280;53183;47.412;18.884;2022-12-10T13:15:26;97767.03;;;3.07;100.00
56721;BME280;53183;47.412;18.884;2022-12-10T13:20:40;97766.63;;;3.14;100.00
56721;BME280;53183;47.412;18.884;2022-12-10T13:50:54;97734.72;;;2.92;100.00
56721;BME280;53183;47.412;18.884;2022-12-10T13:53:42;97733.88;;;2.91;100.00
56721;BME280;53183;47.412;18.884;2022-12-10T14:07:44;97728.16;;;2.85;100.00
56721;BME280;53183;47.412;18.884;2022-12-10T14:10:16;97728.81;;;2.88;100.00
56721;BME280;53183;47.412;18.884;2022-12-10T14:12:45;97731.59;;;2.85;100.00
56721;BME280;53183;47.412;18.884;2022-12-10T14:15:25;97731.16;;;2.77;100.00
56721;BME280;53183;47.412;18.884;2022-12-10T14:18:01;97738.44;;;2.88;100.00
56721;BME280;53183;47.412;18.884;2022-12-10T14:20:32;97736.38;;;2.77;100.00
56721;BME280;53183;47.412;18.884;2022-12-10T14:23:16;97727.63;;;2.78;100.00
56721;BME280;53183;47.412;18.884;2022-12-10T14:26:18;97727.47;;;2.81;100.00
56721;BME280;53183;47.412;18.884;2022-12-10T14:31:24;97729.22;;;2.80;100.00
56721;BME280;53183;47.412;18.884;2022-12-10T14:33:55;97728.25;;;2.83;100.00
56721;BME280;53183;47.412;18.884;2022-12-10T14:36:33;97722.47;;;2.76;100.00
56721;BME280;53183;47.412;18.884;2022-12-10T14:39:01;97726.78;;;2.77;100.00
56721;BME280;53183;47.412;18.884;2022-12-10T14:41:31;97732.13;;;2.74;100.00
56721;BME280;53183;47.412;18.884;2022-12-10T14:44:08;97725.16;;;2.75;100.00
56721;BME280;53183;47.412;18.884;2022-12-10T14:46:38;97722.69;;;2.72;100.00
56721;BME280;53183;47.412;18.884;2022-12-10T14:49:21;97722.00;;;2.68;100.00
56721;BME280;53183;47.412;18.884;2022-12-10T14:51:50;97726.69;;;2.79;100.00
56721;BME280;53183;47.412;18.884;2022-12-10T14:54:33;97723.31;;;2.77;100.00
56721;BME280;53183;47.412;18.884;2022-12-10T14:57:05;97713.94;;;2.73;100.00
56721;BME280;53183;47.412;18.884;2022-12-10T15:02:34;97716.13;;;2.65;100.00
56721;BME280;53183;47.412;18.884;2022-12-10T15:05:09;97712.72;;;2.63;100.00
56721;BME280;53183;47.412;18.884;2022-12-10T15:07:37;97719.12;;;2.57;100.00
56721;BME280;53183;47.412;18.884;2022-12-10T15:10:17;97699.09;;;2.57;100.00
56721;BME280;53183;47.412;18.884;2022-12-10T15:12:50;97699.53;;;2.66;100.00
56721;BME280;53183;47.412;18.884;2022-12-10T15:15:36;97693.72;;;2.61;100.00